Time;durP1;ratioP1;P1;durP2;ratioP2;P2;SDS_P1;SDS_P2;PMS_P1;PMS_P2;Temp;Humidity;BMP_temperature;BMP_pressure;BME280_temperature;BME280_humidity;BME280_pressure;Samples;Min_cycle;Max_cycle;Signal;HPM_P1;HPM_P2
2023/08/26 00:01:47;;;;;;;;;;;21.90;99.90;;;;;;5098429;28;20441;-72
2023/08/26 00:04:13;;;;;;;;;;;21.90;99.90;;;;;;5087492;28;19908;-72
2023/08/26 00:06:38;;;;;;;;;;;21.90;99.90;;;;;;5098118;28;19912;-72
2023/08/26 00:09:04;;;;;;;;;;;21.80;99.90;;;;;;5097613;28;19918;-72
2023/08/26 00:11:29;;;;;;;;;;;21.80;99.90;;;;;;5098336;28;19904;-72
2023/08/26 00:13:55;;;;;;;;;;;21.80;99.90;;;;;;5096629;28;20399;-72
2023/08/26 00:16:21;;;;;;;;;;;21.70;99.90;;;;;;5096853;28;19904;-72
2023/08/26 00:18:49;;;;;;;;;;;21.70;99.90;;;;;;5096994;28;20391;-72
2023/08/26 00:21:16;;;;;;;;;;;21.70;99.90;;;;;;5089453;28;19909;-72
2023/08/26 00:23:41;;;;;;;;;;;21.70;99.90;;;;;;5097251;28;19904;-72
2023/08/26 00:26:08;;;;;;;;;;;21.70;99.90;;;;;;5097799;28;20006;-72
2023/08/26 00:28:33;;;;;;;;;;;21.70;99.90;;;;;;5097260;28;20405;-72
2023/08/26 00:30:59;;;;;;;;;;;21.60;99.90;;;;;;5097431;28;19953;-72
2023/08/26 00:33:26;;;;;;;;;;;21.60;99.90;;;;;;5097683;28;19907;-72
2023/08/26 00:35:51;;;;;;;;;;;21.70;99.90;;;;;;5097567;28;19904;-72
2023/08/26 00:38:17;;;;;;;;;;;21.60;99.90;;;;;;5096939;28;20299;-72
2023/08/26 00:40:43;;;;;;;;;;;21.60;99.90;;;;;;5097397;28;19954;-72
2023/08/26 00:43:08;;;;;;;;;;;21.60;99.90;;;;;;5097183;28;20429;-72
2023/08/26 00:45:39;;;;;;;;;;;21.60;99.90;;;;;;5097507;28;19940;-72
2023/08/26 00:48:04;;;;;;;;;;;21.60;99.90;;;;;;5097413;28;20002;-72
2023/08/26 00:50:30;;;;;;;;;;;21.60;99.90;;;;;;5096049;28;19947;-72
2023/08/26 00:52:55;;;;;;;;;;;21.60;99.90;;;;;;5097227;28;19991;-72
2023/08/26 00:55:21;;;;;;;;;;;21.50;99.90;;;;;;5096751;28;20019;-72
2023/08/26 00:57:47;;;;;;;;;;;21.60;99.90;;;;;;5096953;28;19908;-72
2023/08/26 01:00:13;;;;;;;;;;;21.60;99.90;;;;;;5097117;28;19991;-72
2023/08/26 01:02:38;;;;;;;;;;;21.60;99.90;;;;;;5096894;28;19958;-72
2023/08/26 01:05:07;;;;;;;;;;;21.50;99.90;;;;;;5096999;28;19911;-72
2023/08/26 01:07:32;;;;;;;;;;;21.60;99.90;;;;;;5095628;28;19911;-72
2023/08/26 01:09:58;;;;;;;;;;;21.60;99.90;;;;;;5096900;28;19908;-72
2023/08/26 01:12:42;;;;;;;;;;;21.50;99.90;;;;;;5094967;28;20312;-72
2023/08/26 01:15:09;;;;;;;;;;;21.50;99.90;;;;;;5096865;28;19912;-72
2023/08/26 01:17:35;;;;;;;;;;;21.40;99.90;;;;;;5096866;28;20406;-72
2023/08/26 01:20:01;;;;;;;;;;;21.40;99.90;;;;;;5095286;28;19907;-72
2023/08/26 01:22:28;;;;;;;;;;;21.40;99.90;;;;;;5096741;28;19930;-72
2023/08/26 01:24:54;;;;;;;;;;;21.40;99.90;;;;;;5096055;28;19922;-72
2023/08/26 01:27:20;;;;;;;;;;;21.40;99.90;;;;;;5096488;28;19912;-72
2023/08/26 01:29:45;;;;;;;;;;;21.40;99.90;;;;;;5096461;28;19918;-72
2023/08/26 01:32:11;;;;;;;;;;;21.40;99.90;;;;;;5096459;28;19930;-72
2023/08/26 01:34:38;;;;;;;;;;;21.40;99.90;;;;;;5096740;28;19904;-72
2023/08/26 01:37:04;;;;;;;;;;;21.30;99.90;;;;;;5094643;28;19947;-72
2023/08/26 01:39:30;;;;;;;;;;;21.30;99.90;;;;;;5096337;28;20299;-72
2023/08/26 01:41:56;;;;;;;;;;;21.30;99.90;;;;;;5096125;28;19908;-72
2023/08/26 01:44:22;;;;;;;;;;;21.30;99.90;;;;;;5096320;28;20709;-72
2023/08/26 01:46:47;;;;;;;;;;;21.20;99.90;;;;;;5096198;28;19908;-72
2023/08/26 01:49:14;;;;;;;;;;;21.20;99.90;;;;;;5096019;28;19995;-72
2023/08/26 01:51:39;;;;;;;;;;;21.30;99.90;;;;;;5094462;28;19904;-72
2023/08/26 01:54:06;;;;;;;;;;;21.30;99.90;;;;;;5096166;28;19904;-72
2023/08/26 01:56:32;;;;;;;;;;;21.30;99.90;;;;;;5096051;28;19908;-72
2023/08/26 01:58:58;;;;;;;;;;;21.30;99.90;;;;;;5095803;28;19971;-72
2023/08/26 02:01:23;;;;;;;;;;;21.20;99.90;;;;;;5094838;28;20336;-72
2023/08/26 02:03:49;;;;;;;;;;;21.20;99.90;;;;;;5095945;28;19908;-72
2023/08/26 02:06:14;;;;;;;;;;;21.30;99.90;;;;;;5094971;28;19994;-72
2023/08/26 02:08:40;;;;;;;;;;;21.30;99.90;;;;;;5089789;28;20016;-72
2023/08/26 02:11:06;;;;;;;;;;;21.30;99.90;;;;;;5087488;28;19915;-72
2023/08/26 02:13:31;;;;;;;;;;;21.30;99.90;;;;;;5093930;28;20361;-73
2023/08/26 02:15:58;;;;;;;;;;;21.30;99.90;;;;;;5090653;28;20397;-72
2023/08/26 02:18:23;;;;;;;;;;;21.30;99.90;;;;;;5082888;28;19949;-72
2023/08/26 02:20:49;;;;;;;;;;;21.30;99.90;;;;;;5090776;28;19912;-72
2023/08/26 02:23:15;;;;;;;;;;;21.30;99.90;;;;;;5094556;28;19928;-72
2023/08/26 02:25:41;;;;;;;;;;;21.30;99.90;;;;;;5095796;28;19916;-72
2023/08/26 02:28:07;;;;;;;;;;;21.30;99.90;;;;;;5095257;28;19969;-72
2023/08/26 02:30:33;;;;;;;;;;;21.20;99.90;;;;;;5095860;28;19912;-72
2023/08/26 02:32:58;;;;;;;;;;;21.20;99.90;;;;;;5095585;28;20359;-72
2023/08/26 02:35:24;;;;;;;;;;;21.20;99.90;;;;;;5095706;28;19904;-72
2023/08/26 02:37:49;;;;;;;;;;;21.20;99.90;;;;;;5095435;28;19908;-72
2023/08/26 02:40:15;;;;;;;;;;;21.20;99.90;;;;;;5095780;28;20000;-72
2023/08/26 02:42:40;;;;;;;;;;;21.20;99.90;;;;;;5095531;28;19919;-72
2023/08/26 02:45:06;;;;;;;;;;;21.20;99.90;;;;;;5095687;28;19904;-72
2023/08/26 02:47:31;;;;;;;;;;;21.20;99.90;;;;;;5095528;28;19979;-72
2023/08/26 02:49:57;;;;;;;;;;;21.10;99.90;;;;;;5095429;28;19916;-72
2023/08/26 02:52:22;;;;;;;;;;;21.10;99.90;;;;;;5095757;28;19915;-71
2023/08/26 02:54:48;;;;;;;;;;;21.10;99.90;;;;;;5095395;28;19912;-72
2023/08/26 02:57:14;;;;;;;;;;;21.00;99.90;;;;;;5095664;28;19907;-72
2023/08/26 02:59:40;;;;;;;;;;;20.90;99.90;;;;;;5095245;28;19923;-74
2023/08/26 03:02:06;;;;;;;;;;;20.40;99.90;;;;;;5096182;28;19911;-72
2023/08/26 03:04:35;;;;;;;;;;;19.70;99.90;;;;;;5099046;28;19916;-74
2023/08/26 03:07:01;;;;;;;;;;;19.30;99.90;;;;;;5098683;28;19904;-74
2023/08/26 03:09:28;;;;;;;;;;;18.90;99.90;;;;;;5099216;28;19908;-73
2023/08/26 03:11:54;;;;;;;;;;;18.70;99.90;;;;;;5099010;28;19954;-74
2023/08/26 03:14:19;;;;;;;;;;;18.50;99.90;;;;;;5095230;28;19912;-74
2023/08/26 03:16:45;;;;;;;;;;;18.40;99.90;;;;;;5099481;28;19938;-74
2023/08/26 03:19:10;;;;;;;;;;;18.30;99.90;;;;;;5099029;28;19904;-75
2023/08/26 03:21:36;;;;;;;;;;;18.30;99.90;;;;;;5096226;28;19904;-74
2023/08/26 03:24:01;;;;;;;;;;;18.30;99.90;;;;;;5098713;28;19904;-74
2023/08/26 03:26:27;;;;;;;;;;;18.30;99.90;;;;;;5099152;28;19960;-74
2023/08/26 03:28:52;;;;;;;;;;;18.30;99.90;;;;;;5098312;28;20375;-74
2023/08/26 03:31:18;;;;;;;;;;;18.30;99.90;;;;;;5098983;28;19939;-74
2023/08/26 03:33:43;;;;;;;;;;;18.30;99.90;;;;;;5098905;28;19951;-74
2023/08/26 03:36:09;;;;;;;;;;;18.30;99.90;;;;;;5098941;28;20746;-73
2023/08/26 03:38:35;;;;;;;;;;;18.30;99.90;;;;;;5098847;28;19992;-75
2023/08/26 03:41:04;;;;;;;;;;;18.40;99.90;;;;;;5099060;28;19904;-75
2023/08/26 03:43:30;;;;;;;;;;;18.40;99.90;;;;;;5084820;28;19908;-75
2023/08/26 03:45:55;;;;;;;;;;;18.40;99.90;;;;;;5098670;28;20006;-75
2023/08/26 03:48:21;;;;;;;;;;;18.40;99.90;;;;;;5098570;28;19915;-74
2023/08/26 03:50:53;;;;;;;;;;;18.50;99.90;;;;;;5097368;28;19915;-74
2023/08/26 03:53:19;;;;;;;;;;;18.50;99.90;;;;;;5098259;28;19943;-74
2023/08/26 03:55:45;;;;;;;;;;;18.50;99.90;;;;;;5098615;28;20261;-75
2023/08/26 03:58:10;;;;;;;;;;;18.50;99.90;;;;;;5097974;28;19914;-73
2023/08/26 04:00:36;;;;;;;;;;;18.60;99.90;;;;;;5088668;28;19904;-74
2023/08/26 04:03:02;;;;;;;;;;;18.60;99.90;;;;;;5093466;28;19954;-74
2023/08/26 04:05:27;;;;;;;;;;;18.50;99.90;;;;;;5098296;28;19957;-75
2023/08/26 04:07:53;;;;;;;;;;;18.50;99.90;;;;;;5098304;28;19910;-75
2023/08/26 04:10:18;;;;;;;;;;;18.50;99.90;;;;;;5098153;28;19912;-74
2023/08/26 04:12:44;;;;;;;;;;;18.40;99.90;;;;;;5097822;28;19904;-72
2023/08/26 04:15:09;;;;;;;;;;;18.30;99.90;;;;;;5090467;28;19935;-72
2023/08/26 04:17:35;;;;;;;;;;;18.20;99.90;;;;;;5098092;28;19908;-71
2023/08/26 04:20:01;;;;;;;;;;;18.10;99.90;;;;;;5096208;28;20007;-71
2023/08/26 04:22:27;;;;;;;;;;;18.00;99.90;;;;;;5097750;28;19912;-71
2023/08/26 04:24:52;;;;;;;;;;;18.00;99.90;;;;;;5097559;28;19916;-69
2023/08/26 04:27:18;;;;;;;;;;;17.90;99.90;;;;;;5097456;28;20269;-69
2023/08/26 04:29:43;;;;;;;;;;;17.80;99.90;;;;;;5097372;28;20277;-69
2023/08/26 04:32:09;;;;;;;;;;;17.60;99.90;;;;;;5097777;28;20273;-69
2023/08/26 04:34:35;;;;;;;;;;;17.60;99.90;;;;;;5096134;28;20478;-70
2023/08/26 04:37:00;;;;;;;;;;;17.50;99.90;;;;;;5097749;28;19959;-72
2023/08/26 04:39:26;;;;;;;;;;;17.50;99.90;;;;;;5097819;28;19915;-71
2023/08/26 04:41:51;;;;;;;;;;;17.50;99.90;;;;;;5097423;28;19908;-72
2023/08/26 04:44:17;;;;;;;;;;;17.50;99.90;;;;;;5097523;28;20414;-72
2023/08/26 04:46:43;;;;;;;;;;;17.50;99.90;;;;;;5097728;28;19904;-71
2023/08/26 04:49:08;;;;;;;;;;;17.60;99.90;;;;;;5097514;28;19914;-72
2023/08/26 04:51:34;;;;;;;;;;;17.60;99.90;;;;;;5097139;28;19935;-72
2023/08/26 04:53:59;;;;;;;;;;;17.50;99.90;;;;;;5097474;28;19949;-72
2023/08/26 04:56:25;;;;;;;;;;;17.50;99.90;;;;;;5096937;28;19904;-72
2023/08/26 04:58:51;;;;;;;;;;;17.50;99.90;;;;;;5097137;28;20542;-72
2023/08/26 05:01:17;;;;;;;;;;;17.50;99.90;;;;;;5096975;28;19957;-72
2023/08/26 05:03:42;;;;;;;;;;;17.50;99.90;;;;;;5097004;28;19908;-72
2023/08/26 05:06:08;;;;;;;;;;;17.50;99.90;;;;;;5096969;28;19904;-72
2023/08/26 05:08:33;;;;;;;;;;;17.60;99.90;;;;;;5097216;28;20003;-72
2023/08/26 05:10:59;;;;;;;;;;;17.60;99.90;;;;;;5096890;28;19956;-73
2023/08/26 05:13:24;;;;;;;;;;;17.60;99.90;;;;;;5096499;28;19911;-73
2023/08/26 05:15:50;;;;;;;;;;;17.60;99.90;;;;;;5096813;28;20379;-75
2023/08/26 05:18:16;;;;;;;;;;;17.60;99.90;;;;;;5096794;28;19908;-74
2023/08/26 05:20:46;;;;;;;;;;;17.70;99.90;;;;;;5092443;28;19904;-74
2023/08/26 05:23:12;;;;;;;;;;;17.70;99.90;;;;;;5096650;28;19949;-74
2023/08/26 05:25:37;;;;;;;;;;;17.70;99.90;;;;;;5096082;28;19923;-73
2023/08/26 05:28:06;;;;;;;;;;;17.70;99.90;;;;;;5096215;28;19908;-74
2023/08/26 05:30:33;;;;;;;;;;;17.70;99.90;;;;;;5096630;28;19908;-73
2023/08/26 05:32:58;;;;;;;;;;;17.70;99.90;;;;;;5096742;28;20410;-72
2023/08/26 05:35:24;;;;;;;;;;;17.70;99.90;;;;;;5096606;28;20299;-72
2023/08/26 05:37:49;;;;;;;;;;;17.80;99.90;;;;;;5096784;28;20372;-72
2023/08/26 05:40:16;;;;;;;;;;;17.80;99.90;;;;;;5096619;28;19904;-70
2023/08/26 05:42:42;;;;;;;;;;;17.80;99.90;;;;;;5096184;28;19904;-71
2023/08/26 05:45:08;;;;;;;;;;;17.80;99.90;;;;;;5096453;28;19914;-71
2023/08/26 05:47:34;;;;;;;;;;;17.80;99.90;;;;;;5096542;28;19940;-72
2023/08/26 05:50:00;;;;;;;;;;;17.80;99.90;;;;;;5095896;28;20442;-72
2023/08/26 05:52:25;;;;;;;;;;;17.70;99.90;;;;;;5096283;28;19947;-72
2023/08/26 05:54:51;;;;;;;;;;;17.70;99.90;;;;;;5096104;28;19904;-71
2023/08/26 05:57:16;;;;;;;;;;;17.80;99.90;;;;;;5094752;28;19919;-72
2023/08/26 05:59:42;;;;;;;;;;;17.70;99.90;;;;;;5096158;28;20402;-73
2023/08/26 06:02:08;;;;;;;;;;;17.80;99.90;;;;;;5095040;28;19915;-72
2023/08/26 06:04:33;;;;;;;;;;;17.80;99.90;;;;;;5094808;28;19908;-72
2023/08/26 06:06:59;;;;;;;;;;;17.80;99.90;;;;;;5096246;28;20421;-72
2023/08/26 06:09:24;;;;;;;;;;;17.80;99.90;;;;;;5096007;28;19919;-72
2023/08/26 06:11:50;;;;;;;;;;;17.80;99.90;;;;;;5096139;28;19939;-72
2023/08/26 06:14:16;;;;;;;;;;;17.80;99.90;;;;;;5090825;28;19911;-72
2023/08/26 06:16:41;;;;;;;;;;;17.80;99.90;;;;;;5092039;28;19919;-72
2023/08/26 06:19:07;;;;;;;;;;;17.80;99.90;;;;;;5095937;28;19904;-72
2023/08/26 06:21:32;;;;;;;;;;;17.80;99.90;;;;;;5096070;28;19904;-71
2023/08/26 06:23:58;;;;;;;;;;;17.80;99.90;;;;;;5095393;28;19911;-72
2023/08/26 06:26:23;;;;;;;;;;;17.80;99.90;;;;;;5095970;28;20019;-72
2023/08/26 06:28:49;;;;;;;;;;;17.80;99.90;;;;;;5086410;28;19916;-72
2023/08/26 06:31:14;;;;;;;;;;;17.80;99.90;;;;;;5085812;28;20002;-72
2023/08/26 06:33:40;;;;;;;;;;;17.80;99.90;;;;;;5095818;28;19915;-72
2023/08/26 06:36:07;;;;;;;;;;;17.80;99.90;;;;;;5095895;28;19957;-72
2023/08/26 06:38:32;;;;;;;;;;;17.80;99.90;;;;;;5097584;28;19910;-72
2023/08/26 06:40:58;;;;;;;;;;;17.70;99.90;;;;;;5099997;28;20330;-72
2023/08/26 06:43:24;;;;;;;;;;;17.80;99.90;;;;;;5098394;28;20716;-72
2023/08/26 06:45:50;;;;;;;;;;;17.80;99.90;;;;;;5098816;28;20417;-72
2023/08/26 06:48:16;;;;;;;;;;;17.70;99.90;;;;;;5098466;28;19955;-72
2023/08/26 06:50:41;;;;;;;;;;;17.70;99.90;;;;;;5099691;28;19911;-72
2023/08/26 06:53:07;;;;;;;;;;;17.80;99.90;;;;;;5099757;28;19979;-72
2023/08/26 06:55:33;;;;;;;;;;;17.80;99.90;;;;;;5099870;28;19911;-72
2023/08/26 06:57:58;;;;;;;;;;;17.90;99.90;;;;;;5098044;28;19955;-72
2023/08/26 07:00:24;;;;;;;;;;;17.80;99.90;;;;;;5099527;28;19911;-72
2023/08/26 07:02:49;;;;;;;;;;;17.90;99.90;;;;;;5099370;28;19915;-71
2023/08/26 07:05:15;;;;;;;;;;;17.80;99.90;;;;;;5099673;28;20403;-72
2023/08/26 07:07:41;;;;;;;;;;;17.90;99.90;;;;;;5098372;28;20372;-71
2023/08/26 07:10:06;;;;;;;;;;;17.90;99.90;;;;;;5099451;28;20383;-72
2023/08/26 07:12:32;;;;;;;;;;;17.90;99.90;;;;;;5098916;28;19963;-71
2023/08/26 07:14:57;;;;;;;;;;;17.90;99.90;;;;;;5097840;28;19904;-72
2023/08/26 07:17:23;;;;;;;;;;;17.90;99.90;;;;;;5098825;28;19908;-71
2023/08/26 07:19:49;;;;;;;;;;;18.00;99.90;;;;;;5099333;28;19908;-72
2023/08/26 07:22:14;;;;;;;;;;;18.10;99.90;;;;;;5086525;28;20404;-72
2023/08/26 07:24:40;;;;;;;;;;;18.10;99.90;;;;;;5093739;28;19924;-72
2023/08/26 07:27:05;;;;;;;;;;;18.10;99.90;;;;;;5098983;28;19912;-72
2023/08/26 07:29:31;;;;;;;;;;;18.20;99.90;;;;;;5090988;28;19920;-71
2023/08/26 07:31:56;;;;;;;;;;;18.30;99.90;;;;;;5094068;28;19914;-72
2023/08/26 07:34:22;;;;;;;;;;;18.40;99.90;;;;;;5098720;28;19904;-72
2023/08/26 07:36:47;;;;;;;;;;;18.40;99.90;;;;;;5098919;28;19911;-72
2023/08/26 07:39:13;;;;;;;;;;;18.50;99.90;;;;;;5098857;28;19908;-72
2023/08/26 07:41:39;;;;;;;;;;;18.60;99.90;;;;;;5098573;28;19908;-72
2023/08/26 07:44:04;;;;;;;;;;;18.60;99.90;;;;;;5098244;28;20049;-72
2023/08/26 07:46:30;;;;;;;;;;;18.60;99.90;;;;;;5098786;28;20375;-72
2023/08/26 07:48:56;;;;;;;;;;;18.60;99.90;;;;;;5097592;28;20005;-72
2023/08/26 07:51:21;;;;;;;;;;;18.60;99.90;;;;;;5098605;28;19951;-72
2023/08/26 07:53:47;;;;;;;;;;;18.60;99.90;;;;;;5098454;28;19904;-72
2023/08/26 07:56:12;;;;;;;;;;;18.60;99.90;;;;;;5098474;28;19912;-72
2023/08/26 07:58:38;;;;;;;;;;;18.60;99.90;;;;;;5097980;28;19969;-73
2023/08/26 08:01:03;;;;;;;;;;;18.60;99.90;;;;;;5098267;28;19981;-72
2023/08/26 08:03:29;;;;;;;;;;;18.60;99.90;;;;;;5098409;28;19904;-72
2023/08/26 08:05:54;;;;;;;;;;;18.60;99.90;;;;;;5098366;28;19904;-73
2023/08/26 08:08:20;;;;;;;;;;;18.60;99.90;;;;;;5098168;28;19904;-73
2023/08/26 08:10:45;;;;;;;;;;;18.50;99.90;;;;;;5097973;28;20276;-74
2023/08/26 08:13:11;;;;;;;;;;;18.50;99.90;;;;;;5096994;28;19982;-74
2023/08/26 08:15:37;;;;;;;;;;;18.50;99.90;;;;;;5098033;28;19912;-73
2023/08/26 08:18:02;;;;;;;;;;;18.50;99.90;;;;;;5098274;28;19908;-74
2023/08/26 08:20:30;;;;;;;;;;;18.60;99.90;;;;;;5094314;28;19931;-73
2023/08/26 08:22:56;;;;;;;;;;;18.60;99.90;;;;;;5094296;28;20303;-73
2023/08/26 08:25:21;;;;;;;;;;;18.70;99.90;;;;;;5097598;28;19924;-73
2023/08/26 08:27:47;;;;;;;;;;;18.80;99.90;;;;;;5097490;28;19961;-74
2023/08/26 08:30:12;;;;;;;;;;;18.90;99.90;;;;;;5096359;28;19916;-74
2023/08/26 08:32:38;;;;;;;;;;;19.00;99.90;;;;;;5097886;28;20029;-74
2023/08/26 08:35:03;;;;;;;;;;;19.00;99.90;;;;;;5097487;28;19914;-74
2023/08/26 08:37:29;;;;;;;;;;;18.90;99.90;;;;;;5096481;28;19912;-73
2023/08/26 08:39:55;;;;;;;;;;;19.00;99.90;;;;;;5086167;28;19909;-73
2023/08/26 08:42:21;;;;;;;;;;;19.00;99.90;;;;;;5095138;28;19913;-73
2023/08/26 08:44:47;;;;;;;;;;;19.00;99.90;;;;;;5097602;28;19966;-74
2023/08/26 08:47:13;;;;;;;;;;;19.10;99.90;;;;;;5092287;28;19912;-73
2023/08/26 08:49:41;;;;;;;;;;;19.10;99.90;;;;;;5077228;28;20003;-73
2023/08/26 08:52:07;;;;;;;;;;;19.20;99.90;;;;;;5095800;28;19937;-73
2023/08/26 08:54:33;;;;;;;;;;;19.30;99.90;;;;;;5095002;28;20024;-74
2023/08/26 08:56:59;;;;;;;;;;;19.50;99.90;;;;;;5097353;28;20410;-73
2023/08/26 08:59:25;;;;;;;;;;;19.70;99.90;;;;;;5096279;28;19908;-74
2023/08/26 09:01:54;;;;;;;;;;;20.10;99.90;;;;;;5096670;28;19904;-74
2023/08/26 09:04:19;;;;;;;;;;;20.50;99.90;;;;;;5096973;28;20708;-73
2023/08/26 09:06:45;;;;;;;;;;;20.80;99.90;;;;;;5097213;28;19930;-74
2023/08/26 09:09:11;;;;;;;;;;;21.00;99.90;;;;;;5096854;28;19986;-74
2023/08/26 09:11:37;;;;;;;;;;;21.00;99.90;;;;;;5096927;28;19954;-74
2023/08/26 09:14:03;;;;;;;;;;;21.10;99.90;;;;;;5096673;28;19951;-74
2023/08/26 09:16:33;;;;;;;;;;;21.20;99.90;;;;;;5096975;28;19908;-74
2023/08/26 09:18:59;;;;;;;;;;;21.20;99.90;;;;;;5096844;28;19912;-74
2023/08/26 09:21:25;;;;;;;;;;;21.00;99.90;;;;;;5092740;28;19908;-74
2023/08/26 09:23:50;;;;;;;;;;;21.00;99.90;;;;;;5096683;28;19960;-74
2023/08/26 09:26:16;;;;;;;;;;;20.90;99.90;;;;;;5095536;28;20380;-74
2023/08/26 09:28:50;;;;;;;;;;;20.90;99.90;;;;;;5096040;28;19904;-74
2023/08/26 09:31:16;;;;;;;;;;;21.00;99.90;;;;;;5096859;28;20079;-73
2023/08/26 09:33:42;;;;;;;;;;;21.10;99.90;;;;;;5096477;28;19935;-74
2023/08/26 09:36:07;;;;;;;;;;;21.20;99.90;;;;;;5096459;28;19926;-74
2023/08/26 09:38:40;;;;;;;;;;;21.40;99.90;;;;;;5096411;28;19927;-73
2023/08/26 09:41:06;;;;;;;;;;;21.60;99.90;;;;;;5096373;28;19908;-73
2023/08/26 09:43:31;;;;;;;;;;;21.80;99.90;;;;;;5096324;28;19936;-73
2023/08/26 09:45:57;;;;;;;;;;;21.80;99.90;;;;;;5096256;28;19903;-73
2023/08/26 09:48:24;;;;;;;;;;;22.00;99.90;;;;;;5096671;28;20333;-73
2023/08/26 09:50:50;;;;;;;;;;;22.00;99.90;;;;;;5096409;28;19916;-73
2023/08/26 09:53:44;;;;;;;;;;;22.00;99.90;;;;;;5094981;28;19952;-73
2023/08/26 09:56:10;;;;;;;;;;;22.20;99.90;;;;;;5081556;28;19947;-73
2023/08/26 09:58:36;;;;;;;;;;;21.90;99.90;;;;;;5095918;28;19908;-73
2023/08/26 10:01:01;;;;;;;;;;;21.70;99.90;;;;;;5096144;28;19915;-72
2023/08/26 10:03:27;;;;;;;;;;;21.50;99.90;;;;;;5096287;28;19904;-72
2023/08/26 10:05:53;;;;;;;;;;;21.60;99.90;;;;;;5095988;28;19904;-72
2023/08/26 10:08:26;;;;;;;;;;;21.50;99.90;;;;;;5094644;28;19958;-73
2023/08/26 10:10:55;;;;;;;;;;;21.60;99.90;;;;;;5092240;28;20022;-72
2023/08/26 10:13:24;;;;;;;;;;;21.60;99.90;;;;;;5087223;28;19908;-72
2023/08/26 10:15:55;;;;;;;;;;;21.70;99.90;;;;;;5096077;28;19979;-73
2023/08/26 10:18:23;;;;;;;;;;;21.50;99.90;;;;;;5096081;28;19904;-72
2023/08/26 10:20:49;;;;;;;;;;;21.60;99.90;;;;;;5095975;28;19908;-73
2023/08/26 10:23:15;;;;;;;;;;;21.70;99.90;;;;;;5095076;28;19915;-72
2023/08/26 10:25:41;;;;;;;;;;;21.70;99.90;;;;;;5095723;28;19920;-73
2023/08/26 10:28:06;;;;;;;;;;;21.70;99.90;;;;;;5095380;28;20001;-72
2023/08/26 10:30:32;;;;;;;;;;;21.80;99.90;;;;;;5082164;28;19912;-72
2023/08/26 10:32:59;;;;;;;;;;;21.90;99.90;;;;;;5095763;28;20006;-72
2023/08/26 10:35:25;;;;;;;;;;;22.20;99.90;;;;;;5089115;28;19909;-72
2023/08/26 10:37:51;;;;;;;;;;;22.50;99.90;;;;;;5081176;28;19912;-72
2023/08/26 10:40:30;;;;;;;;;;;22.70;99.90;;;;;;5095826;28;19912;-73
2023/08/26 10:43:14;;;;;;;;;;;22.90;99.90;;;;;;5095471;28;20277;-74
2023/08/26 10:45:46;;;;;;;;;;;23.10;99.90;;;;;;5094465;28;19915;-73
2023/08/26 10:48:11;;;;;;;;;;;23.40;99.90;;;;;;5082552;28;19915;-72
2023/08/26 10:50:37;;;;;;;;;;;23.70;99.90;;;;;;5094407;28;20565;-73
2023/08/26 10:53:16;;;;;;;;;;;23.60;99.90;;;;;;5095669;28;20364;-71
2023/08/26 10:55:41;;;;;;;;;;;23.70;99.90;;;;;;5095538;28;19908;-72
2023/08/26 10:58:11;;;;;;;;;;;23.70;99.90;;;;;;5093803;28;19911;-71
2023/08/26 11:00:38;;;;;;;;;;;23.50;99.90;;;;;;5096011;28;19954;-71
2023/08/26 11:03:05;;;;;;;;;;;23.60;99.90;;;;;;5095745;28;19914;-71
2023/08/26 11:05:30;;;;;;;;;;;23.50;99.90;;;;;;5095523;28;19910;-71
2023/08/26 11:07:56;;;;;;;;;;;23.70;99.90;;;;;;5095215;28;20366;-71
2023/08/26 11:10:26;;;;;;;;;;;23.80;99.90;;;;;;5094452;28;19911;-71
2023/08/26 11:12:52;;;;;;;;;;;24.00;99.90;;;;;;5095408;28;19912;-71
2023/08/26 11:15:17;;;;;;;;;;;24.20;99.90;;;;;;5086840;28;20367;-71
2023/08/26 11:17:43;;;;;;;;;;;24.50;99.90;;;;;;5094025;28;20384;-71
2023/08/26 11:20:09;;;;;;;;;;;24.30;99.90;;;;;;5094195;28;19914;-71
2023/08/26 11:22:34;;;;;;;;;;;23.90;99.90;;;;;;5087721;28;19912;-72
2023/08/26 11:25:00;;;;;;;;;;;23.90;99.90;;;;;;5078580;28;19924;-71
2023/08/26 11:27:25;;;;;;;;;;;23.80;99.90;;;;;;5093468;28;20284;-71
2023/08/26 11:29:51;;;;;;;;;;;23.60;99.90;;;;;;5090337;28;20292;-71
2023/08/26 11:32:16;;;;;;;;;;;23.70;99.90;;;;;;5085750;28;19904;-71
2023/08/26 11:34:42;;;;;;;;;;;23.90;99.90;;;;;;5092031;28;19904;-71
2023/08/26 11:37:08;;;;;;;;;;;23.90;99.90;;;;;;5092381;28;19908;-71
2023/08/26 11:39:35;;;;;;;;;;;24.00;99.90;;;;;;5098885;28;19915;-71
2023/08/26 11:42:13;;;;;;;;;;;24.00;99.90;;;;;;5098154;28;19904;-71
2023/08/26 11:44:38;;;;;;;;;;;24.20;99.90;;;;;;5098184;28;19914;-71
2023/08/26 11:47:04;;;;;;;;;;;24.40;99.90;;;;;;5097364;28;19908;-72
2023/08/26 11:49:30;;;;;;;;;;;24.70;99.90;;;;;;5084135;28;20019;-72
2023/08/26 11:51:56;;;;;;;;;;;24.50;99.90;;;;;;5089350;28;20372;-71
2023/08/26 11:54:25;;;;;;;;;;;24.50;99.90;;;;;;5085055;28;19904;-71
2023/08/26 11:56:51;;;;;;;;;;;24.60;99.90;;;;;;5086584;28;19908;-71
2023/08/26 11:59:22;;;;;;;;;;;24.70;99.90;;;;;;5086879;28;20296;-71
2023/08/26 12:01:48;;;;;;;;;;;24.90;99.90;;;;;;5090129;28;19912;-71
2023/08/26 12:04:15;;;;;;;;;;;25.00;99.90;;;;;;5098499;28;20027;-71
2023/08/26 12:06:41;;;;;;;;;;;24.60;99.90;;;;;;5097304;28;19919;-72
2023/08/26 12:09:07;;;;;;;;;;;24.60;99.90;;;;;;5087862;28;19912;-71
2023/08/26 12:11:34;;;;;;;;;;;24.60;99.90;;;;;;5094291;28;19931;-71
2023/08/26 12:14:00;;;;;;;;;;;24.80;99.90;;;;;;5091805;28;20450;-71
2023/08/26 12:16:33;;;;;;;;;;;24.80;99.90;;;;;;5092534;28;19908;-71
2023/08/26 12:18:59;;;;;;;;;;;25.00;99.90;;;;;;5090161;28;19904;-71
2023/08/26 12:21:29;;;;;;;;;;;25.50;99.90;;;;;;5096073;28;20287;-72
2023/08/26 12:23:54;;;;;;;;;;;25.80;99.90;;;;;;5090429;28;19908;-72
2023/08/26 12:26:21;;;;;;;;;;;26.00;99.90;;;;;;5096107;28;20048;-72
2023/08/26 12:28:46;;;;;;;;;;;26.10;99.90;;;;;;5091942;28;19952;-72
2023/08/26 12:31:13;;;;;;;;;;;25.90;99.90;;;;;;5096534;28;19957;-71
2023/08/26 12:33:38;;;;;;;;;;;25.90;99.90;;;;;;5092360;28;20280;-72
2023/08/26 12:36:04;;;;;;;;;;;25.80;99.90;;;;;;5096152;28;19908;-72
2023/08/26 12:38:30;;;;;;;;;;;25.50;99.90;;;;;;5093362;28;19912;-71
2023/08/26 12:40:58;;;;;;;;;;;24.80;99.90;;;;;;5095098;28;19955;-71
2023/08/26 12:43:23;;;;;;;;;;;24.30;99.90;;;;;;5089642;28;19908;-71
2023/08/26 12:45:49;;;;;;;;;;;24.40;99.90;;;;;;5096626;28;19915;-72
2023/08/26 12:48:14;;;;;;;;;;;24.40;99.90;;;;;;5091190;28;19999;-71
2023/08/26 12:50:40;;;;;;;;;;;24.20;99.90;;;;;;5094005;28;19912;-71
2023/08/26 12:53:05;;;;;;;;;;;24.20;99.90;;;;;;5092249;28;19904;-71
2023/08/26 12:55:31;;;;;;;;;;;24.20;99.90;;;;;;5092534;28;19912;-71
2023/08/26 12:57:57;;;;;;;;;;;24.20;99.90;;;;;;5091925;28;19919;-71
2023/08/26 13:00:23;;;;;;;;;;;24.30;99.90;;;;;;5096005;28;19910;-71
2023/08/26 13:02:48;;;;;;;;;;;24.40;99.90;;;;;;5094957;28;20045;-71
2023/08/26 13:05:14;;;;;;;;;;;24.50;99.90;;;;;;5093681;28;19989;-71
2023/08/26 13:07:40;;;;;;;;;;;24.50;99.90;;;;;;5089718;28;19973;-71
2023/08/26 13:10:06;;;;;;;;;;;24.30;99.90;;;;;;5092871;28;20025;-71
2023/08/26 13:12:31;;;;;;;;;;;24.40;99.90;;;;;;5091682;28;20409;-71
2023/08/26 13:14:57;;;;;;;;;;;24.40;99.90;;;;;;5095963;28;19908;-71
2023/08/26 13:17:22;;;;;;;;;;;24.40;99.90;;;;;;5090559;28;19957;-71
2023/08/26 13:19:48;;;;;;;;;;;24.60;99.90;;;;;;5094747;28;20024;-71
2023/08/26 13:22:13;;;;;;;;;;;24.60;99.90;;;;;;5091917;28;19904;-71
2023/08/26 13:24:40;;;;;;;;;;;24.30;99.90;;;;;;5093255;28;19920;-71
2023/08/26 13:27:06;;;;;;;;;;;24.30;99.90;;;;;;5093288;28;19919;-71
2023/08/26 13:29:32;;;;;;;;;;;24.20;99.90;;;;;;5095635;28;19916;-72
2023/08/26 13:31:58;;;;;;;;;;;24.10;99.90;;;;;;5093415;28;20030;-71
2023/08/26 13:34:24;;;;;;;;;;;24.00;99.90;;;;;;5095782;28;19912;-71
2023/08/26 13:36:49;;;;;;;;;;;23.90;99.90;;;;;;5095091;28;19908;-71
2023/08/26 13:39:15;;;;;;;;;;;24.00;99.90;;;;;;5095209;28;19988;-71
2023/08/26 13:41:40;;;;;;;;;;;24.00;99.90;;;;;;5088290;28;20288;-71
2023/08/26 13:44:06;;;;;;;;;;;24.00;99.90;;;;;;5094036;28;20311;-71
2023/08/26 13:46:32;;;;;;;;;;;23.80;99.90;;;;;;5094913;28;19908;-71
2023/08/26 13:49:00;;;;;;;;;;;23.80;99.90;;;;;;5094590;28;19908;-71
2023/08/26 13:51:26;;;;;;;;;;;23.70;99.90;;;;;;5092201;28;20011;-71
2023/08/26 13:53:52;;;;;;;;;;;23.60;99.90;;;;;;5095195;28;20298;-71
2023/08/26 13:56:17;;;;;;;;;;;23.60;99.90;;;;;;5091491;28;19983;-71
2023/08/26 13:58:43;;;;;;;;;;;23.40;99.90;;;;;;5092796;28;20010;-72
2023/08/26 14:01:09;;;;;;;;;;;23.40;99.90;;;;;;5092616;28;19994;-71
2023/08/26 14:03:34;;;;;;;;;;;23.20;99.90;;;;;;5091464;28;19952;-71
2023/08/26 14:06:03;;;;;;;;;;;23.10;99.90;;;;;;5090811;28;19970;-71
2023/08/26 14:08:29;;;;;;;;;;;23.10;99.90;;;;;;5094936;28;19961;-71
2023/08/26 14:10:54;;;;;;;;;;;23.20;99.90;;;;;;5087201;28;19908;-71